createdAt,value
2023-04-27T00:00:15.077Z,70.20
2023-04-27T00:02:45.014Z,70.20
2023-04-27T00:05:15.426Z,69.80
2023-04-27T00:07:45.054Z,69.50
2023-04-27T00:10:15.513Z,70.50
2023-04-27T00:12:45.357Z,69.50
2023-04-27T00:15:15.101Z,69.70
2023-04-27T00:17:46.643Z,69.70
2023-04-27T00:20:16.601Z,68.60
2023-04-27T00:22:47.893Z,69.00
2023-04-27T00:25:17.691Z,69.00
2023-04-27T00:27:47.563Z,68.30
2023-04-27T00:30:17.612Z,68.00
2023-04-27T00:32:47.391Z,68.10
2023-04-27T00:35:16.796Z,67.70
2023-04-27T00:37:46.565Z,67.10
2023-04-27T00:40:15.987Z,67.00
2023-04-27T00:42:45.772Z,67.10
2023-04-27T00:45:16.401Z,66.60
2023-04-27T00:47:46.920Z,65.90
2023-04-27T00:50:16.647Z,66.00
2023-04-27T00:52:46.028Z,65.50
2023-04-27T00:55:15.409Z,64.90
2023-04-27T00:57:45.573Z,64.50
2023-04-27T01:00:16.451Z,63.60
2023-04-27T01:02:47.019Z,62.60
2023-04-27T01:05:17.200Z,62.80
2023-04-27T01:07:47.101Z,63.10
2023-04-27T01:10:16.843Z,62.00
2023-04-27T01:12:46.199Z,62.60
2023-04-27T01:15:16.030Z,61.30
2023-04-27T01:17:45.901Z,60.70
2023-04-27T01:20:16.931Z,60.90
2023-04-27T01:22:46.709Z,60.10
2023-04-27T01:25:16.641Z,60.10
2023-04-27T01:27:46.028Z,60.50
2023-04-27T01:30:15.506Z,60.60
2023-04-27T01:32:44.895Z,60.00
2023-04-27T01:35:14.697Z,59.70
2023-04-27T01:37:44.096Z,59.20
2023-04-27T01:40:13.704Z,59.80
2023-04-27T01:42:44.726Z,59.70
2023-04-27T01:45:14.500Z,59.10
2023-04-27T01:47:44.252Z,58.90
2023-04-27T01:50:14.655Z,58.90
2023-04-27T01:52:44.787Z,59.50
2023-04-27T01:55:14.605Z,59.50
2023-04-27T01:57:44.610Z,59.20
2023-04-27T02:00:14.378Z,59.20
2023-04-27T02:02:43.856Z,59.30
2023-04-27T02:05:13.293Z,59.00
2023-04-27T02:07:43.690Z,59.00
2023-04-27T02:10:14.979Z,58.40
2023-04-27T02:12:44.309Z,58.50
2023-04-27T02:15:14.104Z,58.70
2023-04-27T02:17:44.564Z,58.80
2023-04-27T02:20:14.125Z,59.30
2023-04-27T02:22:45.767Z,58.70
2023-04-27T02:25:15.661Z,59.00
2023-04-27T02:27:47.433Z,58.80
2023-04-27T02:30:17.917Z,58.20
2023-04-27T02:32:48.432Z,57.60
2023-04-27T02:35:18.253Z,57.40
2023-04-27T02:37:48.043Z,57.10
2023-04-27T02:40:17.410Z,57.20
2023-04-27T02:42:47.292Z,57.10
2023-04-27T02:45:16.754Z,57.20
2023-04-27T02:47:46.134Z,57.20
2023-04-27T02:50:15.931Z,56.80
2023-04-27T02:52:45.266Z,57.40
2023-04-27T02:55:16.469Z,56.90
2023-04-27T02:57:46.503Z,56.50
2023-04-27T03:00:16.111Z,56.80
2023-04-27T03:02:45.705Z,56.90
2023-04-27T03:05:15.596Z,56.80
2023-04-27T03:07:45.053Z,56.30
2023-04-27T03:10:14.786Z,55.90
2023-04-27T03:12:44.258Z,56.40
2023-04-27T03:15:14.837Z,56.40
2023-04-27T03:17:44.260Z,56.80
2023-04-27T03:20:14.022Z,56.40
2023-04-27T03:22:43.855Z,56.00
2023-04-27T03:25:13.433Z,55.50
2023-04-27T03:27:44.114Z,56.00
2023-04-27T03:30:14.186Z,55.40
2023-04-27T03:32:45.032Z,55.30
2023-04-27T03:35:18.043Z,55.10
2023-04-27T03:37:48.162Z,55.20
2023-04-27T03:40:18.005Z,55.40
2023-04-27T03:42:48.777Z,55.00
2023-04-27T03:45:21.175Z,54.60
2023-04-27T03:47:51.679Z,54.60
2023-04-27T03:50:22.458Z,54.40
2023-04-27T03:52:52.309Z,54.20
2023-04-27T03:55:23.084Z,53.90
2023-04-27T03:57:53.213Z,53.40
2023-04-27T04:00:23.059Z,53.60
2023-04-27T04:02:53.896Z,53.80
2023-04-27T04:05:23.876Z,54.10
2023-04-27T04:07:53.816Z,54.30
2023-04-27T04:10:23.586Z,54.10
2023-04-27T04:12:53.855Z,53.60
2023-04-27T04:15:23.301Z,53.30
2023-04-27T04:17:53.321Z,53.20
2023-04-27T04:20:23.173Z,53.40
2023-04-27T04:22:52.923Z,53.10
2023-04-27T04:25:22.861Z,52.90
2023-04-27T04:27:53.027Z,53.20
2023-04-27T04:30:22.452Z,53.80
2023-04-27T04:32:52.397Z,53.00
2023-04-27T04:35:22.048Z,53.70
2023-04-27T04:37:51.950Z,53.90
2023-04-27T04:40:21.426Z,54.20
2023-04-27T04:42:51.183Z,53.30
2023-04-27T04:45:21.004Z,51.70
2023-04-27T04:47:51.448Z,52.20
2023-04-27T04:50:20.890Z,52.00
2023-04-27T04:52:50.254Z,51.90
2023-04-27T04:55:20.044Z,52.00
2023-04-27T04:57:49.392Z,52.00
2023-04-27T05:00:18.790Z,51.80
2023-04-27T05:02:48.718Z,51.60
2023-04-27T05:05:18.238Z,51.90
2023-04-27T05:07:47.593Z,52.70
2023-04-27T05:10:16.961Z,51.30
2023-04-27T05:12:46.346Z,50.90
2023-04-27T05:15:15.736Z,51.20
2023-04-27T05:17:45.648Z,50.70
2023-04-27T05:20:15.980Z,50.80
2023-04-27T05:22:46.350Z,51.00
2023-04-27T05:25:15.760Z,51.80
2023-04-27T05:27:45.086Z,52.40
2023-04-27T05:30:15.326Z,52.10
2023-04-27T05:32:44.656Z,51.60
2023-04-27T05:35:14.436Z,51.70
2023-04-27T05:37:43.796Z,51.50
2023-04-27T05:40:14.473Z,51.30
2023-04-27T05:42:43.862Z,51.40
2023-04-27T05:45:13.613Z,50.30
2023-04-27T05:47:44.044Z,50.30
2023-04-27T05:50:13.679Z,49.60
2023-04-27T05:52:43.955Z,49.90
2023-04-27T05:55:13.361Z,50.40
2023-04-27T05:57:42.990Z,49.30
2023-04-27T06:00:13.295Z,49.20
2023-04-27T06:02:42.953Z,50.00
2023-04-27T06:05:12.965Z,50.80
2023-04-27T06:07:45.637Z,51.00
2023-04-27T06:10:15.719Z,52.10
2023-04-27T06:12:46.383Z,52.00
2023-04-27T06:15:15.922Z,51.90
2023-04-27T06:17:48.765Z,52.40
2023-04-27T06:20:18.624Z,52.60
2023-04-27T06:22:48.913Z,53.40
2023-04-27T06:25:18.671Z,53.10
2023-04-27T06:27:49.015Z,53.70
2023-04-27T06:30:19.174Z,54.40
2023-04-27T06:32:48.556Z,54.60
2023-04-27T06:35:18.441Z,55.00
2023-04-27T06:37:50.200Z,54.80
2023-04-27T06:40:19.547Z,55.20
2023-04-27T06:42:49.359Z,55.20
2023-04-27T06:45:18.736Z,54.50
2023-04-27T06:47:48.518Z,55.00
2023-04-27T06:50:19.095Z,55.30
2023-04-27T06:52:49.533Z,55.50
2023-04-27T06:55:19.321Z,55.50
2023-04-27T06:57:49.147Z,55.60
2023-04-27T07:00:19.041Z,56.30
2023-04-27T07:02:48.995Z,56.20
2023-04-27T07:05:18.379Z,56.00
2023-04-27T07:07:48.523Z,56.30
2023-04-27T07:10:18.549Z,56.60
2023-04-27T07:12:48.776Z,57.00
2023-04-27T07:15:18.568Z,56.90
2023-04-27T07:17:48.527Z,57.30
2023-04-27T07:20:18.948Z,57.50
2023-04-27T07:22:48.404Z,57.90
2023-04-27T07:25:18.288Z,58.00
2023-04-27T07:27:48.848Z,58.40
2023-04-27T07:30:19.457Z,58.70
2023-04-27T07:32:50.165Z,59.10
2023-04-27T07:35:19.551Z,59.40
2023-04-27T07:37:49.415Z,59.80
2023-04-27T07:40:19.299Z,60.00
2023-04-27T07:42:48.815Z,60.30
2023-04-27T07:45:19.626Z,60.50
2023-04-27T07:47:49.388Z,60.70
2023-04-27T07:50:21.824Z,60.80
2023-04-27T07:52:51.710Z,61.00
2023-04-27T07:55:21.566Z,61.20
2023-04-27T07:57:52.345Z,61.40
2023-04-27T08:00:22.634Z,61.70
2023-04-27T08:02:53.155Z,61.80
2023-04-27T08:05:23.627Z,61.90
2023-04-27T08:07:55.192Z,62.10
2023-04-27T08:10:25.618Z,62.10
2023-04-27T08:12:55.402Z,62.40
2023-04-27T08:15:25.221Z,62.50
2023-04-27T08:17:54.816Z,62.80
2023-04-27T08:20:24.260Z,63.40
2023-04-27T08:22:54.277Z,63.60
2023-04-27T08:25:24.757Z,63.60
2023-04-27T08:27:56.128Z,64.00
2023-04-27T08:30:25.985Z,64.20
2023-04-27T08:32:57.664Z,64.10
2023-04-27T08:35:27.481Z,64.20
2023-04-27T08:37:57.293Z,64.40
2023-04-27T08:40:27.113Z,64.90
2023-04-27T08:43:01.872Z,65.00
2023-04-27T08:45:31.729Z,65.20
2023-04-27T08:48:01.429Z,65.40
2023-04-27T08:50:31.882Z,65.50
2023-04-27T08:53:01.578Z,65.50
2023-04-27T08:55:31.351Z,66.00
2023-04-27T08:58:03.271Z,66.10
2023-04-27T09:00:42.021Z,66.20
2023-04-27T09:03:28.226Z,66.70
2023-04-27T09:06:05.383Z,66.80
2023-04-27T09:08:45.506Z,66.90
2023-04-27T09:11:16.536Z,67.00
2023-04-27T09:13:48.098Z,67.10
2023-04-27T09:16:17.835Z,67.50
2023-04-27T09:18:47.842Z,67.60
2023-04-27T09:21:37.552Z,67.50
2023-04-27T09:24:15.015Z,67.20
2023-04-27T09:26:51.281Z,67.00
2023-04-27T09:29:21.084Z,66.80
2023-04-27T09:31:51.550Z,66.40
2023-04-27T09:34:21.342Z,66.30
2023-04-27T09:36:51.123Z,66.50
2023-04-27T09:39:21.761Z,66.50
2023-04-27T09:41:51.373Z,66.60
